This is the latest recevied weather packets stored in our database for station/object KA7EII-13. If no packets are shown the sender has not sent any weather packets the latest 10 day(s).
| Time | Temp. | Humidity | Pressure | Rain* | Wind** | Luminosity | Snow |
|---|---|---|---|---|---|---|---|
| 1777628814 | 0.56° C | 73% | 1110.2 hPa | 0 mm | - | 0 W/m² | - |
| 1777628509 | 0.56° C | 72% | 1110.1 hPa | 0 mm | - | 0 W/m² | - |
| 1777628206 | 0.56° C | 71% | 1110.1 hPa | 0 mm | - | 0 W/m² | - |
| 1777627896 | 1.11° C | 69% | 1110.1 hPa | 0 mm | - | 0 W/m² | - |
| 1777627595 | 1.67° C | 67% | 1109.8 hPa | 0 mm | - | 0 W/m² | - |
| 1777627295 | 1.11° C | 68% | 1110 hPa | 0 mm | - | 0 W/m² | - |
| 1777626987 | 1.11° C | 68% | 1110.1 hPa | 0 mm | - | 0 W/m² | - |
| 1777626683 | 1.11° C | 69% | 1109.8 hPa | 0 mm | - | 0 W/m² | - |
| 1777626379 | 1.11° C | 67% | 1110 hPa | 0 mm | - | 0 W/m² | - |
| 1777626078 | 1.11° C | 68% | 1110.1 hPa | 0 mm | - | 0 W/m² | - |
| 1777625773 | 1.67° C | 66% | 1109.8 hPa | 0 mm | - | 0 W/m² | - |
| 1777625469 | 1.67° C | 65% | 1110 hPa | 0 mm | - | 0 W/m² | - |
| 1777625164 | 2.22° C | 63% | 1109.8 hPa | 0 mm | - | 0 W/m² | - |
| 1777624861 | 2.22° C | 62% | 1109.7 hPa | 0 mm | - | 0 W/m² | - |
| 1777624556 | 1.67° C | 63% | 1109.9 hPa | 0 mm | - | 0 W/m² | - |
| 1777624251 | 1.67° C | 66% | 1109.9 hPa | 0 mm | - | 0 W/m² | - |
| 1777623944 | 1.67° C | 69% | 1109.9 hPa | 0 mm | - | 0 W/m² | - |
| 1777623641 | 1.67° C | 70% | 1110 hPa | 0 mm | - | 0 W/m² | - |
| 1777623339 | 1.67° C | 72% | 1109.7 hPa | 0 mm | - | 0 W/m² | - |
| 1777623036 | 1.67° C | 69% | 1109.8 hPa | 0 mm | - | 0 W/m² | - |
| 1777622732 | 1.67° C | 68% | 1109.9 hPa | 0 mm | - | 0 W/m² | - |
| 1777622429 | 2.22° C | 66% | 1109.8 hPa | 0 mm | - | 0 W/m² | - |
| 1777622126 | 2.22° C | 66% | 1110 hPa | 0 mm | - | 0 W/m² | - |
| 1777621821 | 2.78° C | 65% | 1110 hPa | 0 mm | - | 0 W/m² | - |
| 1777621518 | 2.78° C | 64% | 1109.7 hPa | 0 mm | - | 0 W/m² | - |
* Rain latest hour (hover to see other rain measurements)
** Current wind speed in m/s (hover to see current wind gust speed)